createdAt,value
2023-03-10T00:00:01.157Z,0.08055555555555555
2023-03-10T00:01:01.273Z,0.08055555555555555
2023-03-10T00:02:01.148Z,0.03888888888888889
2023-03-10T00:03:01.066Z,0.08055555555555555
2023-03-10T00:04:01.171Z,0.11944444444444444
2023-03-10T00:05:01.071Z,0
2023-03-10T00:06:00.527Z,0.08055555555555555
2023-03-10T00:07:00.190Z,0
2023-03-10T00:08:00.141Z,0
2023-03-10T00:08:59.971Z,0.08055555555555555
2023-03-10T00:09:59.578Z,0.11944444444444444
2023-03-10T00:11:02.170Z,0
2023-03-10T00:12:01.127Z,0
2023-03-10T00:13:01.133Z,0.08055555555555555
2023-03-10T00:14:01.152Z,0
2023-03-10T00:15:01.129Z,0.08055555555555555
2023-03-10T00:16:01.302Z,0.15833333333333333
2023-03-10T00:17:02.493Z,0.10555555555555556
2023-03-10T00:18:02.113Z,0.10555555555555556
2023-03-10T00:19:01.737Z,0.08055555555555555
2023-03-10T00:20:02.416Z,0.11944444444444444
2023-03-10T00:21:01.485Z,0.23888888888888887
2023-03-10T00:22:01.070Z,0.08055555555555555
2023-03-10T00:23:01.089Z,0.11944444444444444
2023-03-10T00:24:01.099Z,0.11944444444444444
2023-03-10T00:25:01.105Z,0.2777777777777778
2023-03-10T00:26:01.479Z,0.26944444444444443
2023-03-10T00:27:01.115Z,0.19999999999999998
2023-03-10T00:28:01.127Z,0.15833333333333333
2023-03-10T00:29:01.124Z,0.31666666666666665
2023-03-10T00:30:01.130Z,0.2777777777777778
2023-03-10T00:31:01.568Z,0.23888888888888887
2023-03-10T00:32:01.778Z,0.11944444444444444
2023-03-10T00:33:01.533Z,0.3027777777777778
2023-03-10T00:34:01.158Z,0.11944444444444444
2023-03-10T00:35:01.167Z,0.15833333333333333
2023-03-10T00:36:01.466Z,0
2023-03-10T00:37:01.075Z,0
2023-03-10T00:38:01.092Z,0
2023-03-10T00:39:01.318Z,0
2023-03-10T00:40:01.324Z,0
2023-03-10T00:41:02.469Z,0
2023-03-10T00:42:01.113Z,0.03888888888888889
2023-03-10T00:43:01.065Z,0.08055555555555555
2023-03-10T00:44:01.125Z,0.15833333333333333
2023-03-10T00:45:01.142Z,0.11944444444444444
2023-03-10T00:46:01.270Z,0.08055555555555555
2023-03-10T00:47:01.590Z,0.08055555555555555
2023-03-10T00:48:01.404Z,0.11944444444444444
2023-03-10T00:49:01.431Z,0.23888888888888887
2023-03-10T00:50:02.161Z,0.075
2023-03-10T00:51:02.300Z,0.09722222222222221
2023-03-10T00:52:01.986Z,0.23888888888888887
2023-03-10T00:53:03.078Z,0.15
2023-03-10T00:54:01.300Z,0.19999999999999998
2023-03-10T00:55:01.068Z,0.08055555555555555
2023-03-10T00:56:01.446Z,0.10555555555555556
2023-03-10T00:57:02.469Z,0.03888888888888889
2023-03-10T00:58:01.428Z,0.08055555555555555
2023-03-10T00:59:04.471Z,0.11944444444444444
2023-03-10T01:00:02.091Z,0
2023-03-10T01:01:01.133Z,0.09722222222222221
2023-03-10T01:02:02.610Z,0
2023-03-10T01:03:01.245Z,0.03888888888888889
2023-03-10T01:04:01.509Z,0.08055555555555555
2023-03-10T01:05:01.762Z,0.15833333333333333
2023-03-10T01:06:04.113Z,0.12222222222222222
2023-03-10T01:07:01.157Z,0.23888888888888887
2023-03-10T01:08:01.799Z,0.08055555555555555
2023-03-10T01:09:01.211Z,0.08055555555555555
2023-03-10T01:10:00.853Z,0.15833333333333333
2023-03-10T01:11:06.152Z,0.11944444444444444
2023-03-10T01:12:01.220Z,0.08055555555555555
2023-03-10T01:13:01.132Z,0.08055555555555555
2023-03-10T01:14:01.092Z,0.1527777777777778
2023-03-10T01:15:01.128Z,0.11944444444444444
2023-03-10T01:16:08.862Z,0.08611111111111111
2023-03-10T01:17:01.094Z,0.11944444444444444
2023-03-10T01:18:01.144Z,0.23888888888888887
2023-03-10T01:19:01.130Z,0.19999999999999998
2023-03-10T01:20:01.134Z,0.19999999999999998
2023-03-10T01:21:12.918Z,0.11111111111111112
2023-03-10T01:22:01.150Z,0.11944444444444444
2023-03-10T01:23:00.608Z,0.15833333333333333
2023-03-10T01:24:00.356Z,0.11111111111111112
2023-03-10T01:25:00.169Z,0.08055555555555555
2023-03-10T01:26:13.650Z,0.08055555555555555
2023-03-10T01:27:01.092Z,0.08055555555555555
2023-03-10T01:28:01.114Z,0.08055555555555555
2023-03-10T01:29:01.093Z,0.11944444444444444
2023-03-10T01:30:01.528Z,0.14444444444444446
2023-03-10T01:31:01.270Z,0
2023-03-10T01:32:01.106Z,0.03888888888888889
2023-03-10T01:33:01.129Z,0.11944444444444444
2023-03-10T01:34:01.056Z,0
2023-03-10T01:35:01.071Z,0
2023-03-10T01:36:01.152Z,0.11944444444444444
2023-03-10T01:37:01.143Z,0.11944444444444444
2023-03-10T01:38:01.171Z,0.19999999999999998
2023-03-10T01:39:01.191Z,0.2777777777777778
2023-03-10T01:40:01.170Z,0.15833333333333333
2023-03-10T01:41:01.793Z,0.23888888888888887
2023-03-10T01:42:01.976Z,0.06944444444444445
2023-03-10T01:43:02.135Z,0
2023-03-10T01:44:01.470Z,0
2023-03-10T01:45:01.088Z,0.03888888888888889
2023-03-10T01:46:01.091Z,0
2023-03-10T01:47:01.167Z,0.15833333333333333
2023-03-10T01:48:01.109Z,0.11944444444444444
2023-03-10T01:49:01.116Z,0.03888888888888889
2023-03-10T01:50:01.878Z,0
2023-03-10T01:51:01.139Z,0.19999999999999998
2023-03-10T01:52:02.042Z,0
2023-03-10T01:53:01.155Z,0
2023-03-10T01:54:01.138Z,0.05833333333333333
2023-03-10T01:55:01.147Z,0.08055555555555555
2023-03-10T01:56:01.161Z,0
2023-03-10T01:57:01.161Z,0.11944444444444444
2023-03-10T01:58:01.820Z,0.03888888888888889
2023-03-10T01:59:01.069Z,0.11944444444444444
2023-03-10T02:00:01.710Z,0.11111111111111112
2023-03-10T02:01:01.269Z,0.03888888888888889
2023-03-10T02:02:01.172Z,0.03888888888888889
2023-03-10T02:03:02.138Z,0
2023-03-10T02:04:01.863Z,0.175
2023-03-10T02:05:01.106Z,0.08055555555555555
2023-03-10T02:06:01.179Z,0.08055555555555555
2023-03-10T02:07:01.952Z,0.07222222222222223
2023-03-10T02:08:01.132Z,0.08055555555555555
2023-03-10T02:09:01.055Z,0
2023-03-10T02:10:01.144Z,0
2023-03-10T02:11:01.137Z,0
2023-03-10T02:12:01.963Z,0
2023-03-10T02:13:01.982Z,0
2023-03-10T02:14:02.639Z,0.18333333333333335
2023-03-10T02:15:01.388Z,0.03888888888888889
2023-03-10T02:16:01.145Z,0
2023-03-10T02:17:01.890Z,0
2023-03-10T02:18:03.916Z,0
2023-03-10T02:19:01.133Z,0
2023-03-10T02:20:01.111Z,0
2023-03-10T02:21:01.864Z,0
2023-03-10T02:22:02.034Z,0
2023-03-10T02:23:01.543Z,0
2023-03-10T02:24:01.980Z,0
2023-03-10T02:25:01.431Z,0
2023-03-10T02:26:03.079Z,0
2023-03-10T02:27:01.158Z,0
2023-03-10T02:28:01.197Z,0
2023-03-10T02:29:01.973Z,0
2023-03-10T02:30:01.384Z,0
2023-03-10T02:31:01.453Z,0
2023-03-10T02:32:01.096Z,0
2023-03-10T02:33:01.079Z,0
2023-03-10T02:34:01.098Z,0
2023-03-10T02:35:01.181Z,0
2023-03-10T02:36:01.170Z,0
2023-03-10T02:37:01.512Z,0
2023-03-10T02:38:01.114Z,0
2023-03-10T02:39:01.132Z,0
2023-03-10T02:40:01.125Z,0
2023-03-10T02:41:01.146Z,0
2023-03-10T02:42:01.153Z,0
2023-03-10T02:43:01.453Z,0
2023-03-10T02:44:01.564Z,0
2023-03-10T02:45:02.613Z,0
2023-03-10T02:46:01.319Z,0
2023-03-10T02:47:03.059Z,0.1361111111111111
2023-03-10T02:48:02.085Z,0.08055555555555555
2023-03-10T02:49:01.761Z,0
2023-03-10T02:50:01.778Z,0
2023-03-10T02:51:01.484Z,0.03888888888888889
2023-03-10T02:52:05.535Z,0.011111111111111112
2023-03-10T02:53:01.232Z,0.08055555555555555
2023-03-10T02:54:16.499Z,0
2023-03-10T02:55:01.903Z,0
2023-03-10T02:56:01.118Z,0
2023-03-10T02:57:08.608Z,0
2023-03-10T02:58:01.129Z,0.08055555555555555
2023-03-10T02:59:02.403Z,0
2023-03-10T03:00:01.580Z,0
2023-03-10T03:01:01.507Z,0
2023-03-10T03:02:11.913Z,0
2023-03-10T03:03:01.302Z,0
2023-03-10T03:04:01.111Z,0
2023-03-10T03:05:01.073Z,0.08055555555555555
2023-03-10T03:06:01.081Z,0
2023-03-10T03:07:15.503Z,0
2023-03-10T03:08:01.499Z,0.036111111111111115
2023-03-10T03:09:01.242Z,0
2023-03-10T03:10:01.051Z,0
2023-03-10T03:11:01.116Z,0
2023-03-10T03:12:01.119Z,0
2023-03-10T03:13:01.047Z,0
2023-03-10T03:14:01.139Z,0
2023-03-10T03:15:01.070Z,0.03888888888888889
2023-03-10T03:16:01.163Z,0
2023-03-10T03:17:01.251Z,0
2023-03-10T03:18:02.190Z,0
2023-03-10T03:19:02.152Z,0
2023-03-10T03:20:01.878Z,0
2023-03-10T03:21:01.784Z,0
2023-03-10T03:22:01.101Z,0
2023-03-10T03:23:01.102Z,0
2023-03-10T03:24:01.483Z,0
2023-03-10T03:25:01.093Z,0.10833333333333334
2023-03-10T03:26:01.113Z,0
2023-03-10T03:27:01.110Z,0
2023-03-10T03:28:01.120Z,0
2023-03-10T03:29:00.813Z,0.11944444444444444
2023-03-10T03:30:00.473Z,0
2023-03-10T03:31:00.217Z,0
2023-03-10T03:32:00.261Z,0
2023-03-10T03:33:00.006Z,0
2023-03-10T03:34:00.369Z,0
2023-03-10T03:35:00.026Z,0
2023-03-10T03:35:59.780Z,0
2023-03-10T03:37:02.487Z,0
2023-03-10T03:38:01.374Z,0.08055555555555555
2023-03-10T03:39:02.061Z,0
2023-03-10T03:40:02.165Z,0
2023-03-10T03:41:01.093Z,0
2023-03-10T03:42:01.734Z,0.03888888888888889
2023-03-10T03:43:01.108Z,0.08055555555555555
2023-03-10T03:44:01.029Z,0
2023-03-10T03:45:01.451Z,0
2023-03-10T03:46:02.485Z,0.03888888888888889
2023-03-10T03:47:02.051Z,0.08055555555555555
2023-03-10T03:48:01.163Z,0
2023-03-10T03:49:00.718Z,0
2023-03-10T03:50:00.430Z,0.08055555555555555
2023-03-10T03:51:00.146Z,0.08055555555555555
2023-03-10T03:51:59.817Z,0
2023-03-10T03:53:01.481Z,0
2023-03-10T03:54:01.327Z,0.03888888888888889
2023-03-10T03:55:02.339Z,0
2023-03-10T03:56:02.292Z,0
2023-03-10T03:57:01.096Z,0.11944444444444444
2023-03-10T03:58:01.059Z,0.1388888888888889
2023-03-10T03:59:01.173Z,0
2023-03-10T04:00:01.135Z,0
2023-03-10T04:01:01.116Z,0
2023-03-10T04:02:01.186Z,0
2023-03-10T04:03:01.513Z,0
2023-03-10T04:04:01.139Z,0
2023-03-10T04:05:01.947Z,0.03888888888888889
2023-03-10T04:06:01.546Z,0.11944444444444444
2023-03-10T04:07:01.227Z,0
2023-03-10T04:08:01.992Z,0
2023-03-10T04:09:01.263Z,0.39999999999999997
2023-03-10T04:10:01.342Z,0.08055555555555555
2023-03-10T04:11:02.018Z,0.35555555555555557
2023-03-10T04:12:01.824Z,0.08055555555555555
2023-03-10T04:13:01.110Z,0.036111111111111115
2023-03-10T04:14:00.741Z,0.08055555555555555
2023-03-10T04:15:00.338Z,0.03888888888888889
2023-03-10T04:16:00.061Z,0
2023-03-10T04:16:59.667Z,0
2023-03-10T04:18:01.343Z,0
2023-03-10T04:19:01.573Z,0
2023-03-10T04:20:07.422Z,0.03888888888888889
2023-03-10T04:21:02.197Z,0
2023-03-10T04:22:01.148Z,0.15833333333333333
2023-03-10T04:23:04.225Z,0
2023-03-10T04:24:01.323Z,0
2023-03-10T04:25:00.975Z,0.08055555555555555
2023-03-10T04:26:01.113Z,0
2023-03-10T04:27:01.101Z,0.08055555555555555
2023-03-10T04:28:05.877Z,0.011111111111111112
2023-03-10T04:29:01.131Z,0.1388888888888889
2023-03-10T04:30:01.111Z,0
2023-03-10T04:31:01.175Z,0.08055555555555555
2023-03-10T04:32:05.493Z,0.15833333333333333
2023-03-10T04:33:09.993Z,0.036111111111111115
2023-03-10T04:34:03.959Z,0
2023-03-10T04:35:01.154Z,0.03888888888888889
2023-03-10T04:36:01.200Z,0.08055555555555555
2023-03-10T04:37:01.394Z,0
2023-03-10T04:38:11.920Z,0.024999999999999998
2023-03-10T04:39:02.147Z,0
2023-03-10T04:40:01.168Z,0
2023-03-10T04:41:01.787Z,0
2023-03-10T04:42:01.093Z,0
2023-03-10T04:43:14.546Z,0
2023-03-10T04:44:01.088Z,0
2023-03-10T04:45:01.467Z,0.07222222222222223
2023-03-10T04:46:01.114Z,0
2023-03-10T04:47:01.048Z,0
2023-03-10T04:48:01.110Z,0
2023-03-10T04:49:01.146Z,0
2023-03-10T04:50:01.124Z,0
2023-03-10T04:51:01.137Z,0
2023-03-10T04:52:01.547Z,0
2023-03-10T04:53:01.138Z,0
2023-03-10T04:54:01.149Z,0
2023-03-10T04:55:01.844Z,0
2023-03-10T04:56:01.152Z,0
2023-03-10T04:57:01.124Z,0
2023-03-10T04:58:01.078Z,0
2023-03-10T04:59:01.087Z,0.08055555555555555
2023-03-10T05:00:03.304Z,0
2023-03-10T05:01:03.514Z,0
2023-03-10T05:02:00.775Z,0
2023-03-10T05:03:00.506Z,0
2023-03-10T05:04:00.182Z,0
2023-03-10T05:05:00.376Z,0
2023-03-10T05:05:59.932Z,0
2023-03-10T05:06:59.543Z,0.03888888888888889
2023-03-10T05:08:01.172Z,0.35833333333333334
2023-03-10T05:09:01.328Z,0
2023-03-10T05:10:02.509Z,0.036111111111111115
2023-03-10T05:11:02.050Z,0
2023-03-10T05:12:01.453Z,0.08055555555555555
2023-03-10T05:13:01.211Z,0
2023-03-10T05:14:01.494Z,0.26111111111111107
2023-03-10T05:15:01.293Z,0.03888888888888889
2023-03-10T05:16:02.621Z,0
2023-03-10T05:17:01.042Z,0
2023-03-10T05:18:01.090Z,0
2023-03-10T05:19:01.058Z,0
2023-03-10T05:20:01.130Z,0.036111111111111115
2023-03-10T05:21:01.114Z,0.08055555555555555
2023-03-10T05:22:01.217Z,0
2023-03-10T05:23:00.922Z,0
2023-03-10T05:24:01.136Z,0.03888888888888889
2023-03-10T05:25:01.132Z,0
2023-03-10T05:26:01.061Z,0
2023-03-10T05:27:01.060Z,0
2023-03-10T05:28:01.200Z,0
2023-03-10T05:29:01.172Z,0
2023-03-10T05:30:01.167Z,0.08055555555555555
2023-03-10T05:31:01.959Z,0.03888888888888889
2023-03-10T05:32:01.471Z,0.075
2023-03-10T05:33:01.187Z,0.03888888888888889
2023-03-10T05:34:01.810Z,0.05833333333333333
2023-03-10T05:35:01.116Z,0
2023-03-10T05:36:01.144Z,0.03888888888888889
2023-03-10T05:37:01.237Z,0.08055555555555555
2023-03-10T05:38:01.118Z,0
2023-03-10T05:39:01.149Z,0
2023-03-10T05:40:01.188Z,0
2023-03-10T05:41:01.459Z,0
2023-03-10T05:42:00.930Z,0.03888888888888889
2023-03-10T05:43:00.739Z,0.03888888888888889
2023-03-10T05:44:00.441Z,0.12222222222222222
2023-03-10T05:45:00.157Z,0
2023-03-10T05:45:59.917Z,0.11944444444444444
2023-03-10T05:46:59.764Z,0
2023-03-10T05:48:01.752Z,0.03888888888888889
2023-03-10T05:49:01.757Z,0
2023-03-10T05:50:01.264Z,0
2023-03-10T05:51:01.250Z,0
2023-03-10T05:52:01.881Z,0.075
2023-03-10T05:53:01.112Z,0
2023-03-10T05:54:01.230Z,0
2023-03-10T05:55:01.127Z,0
2023-03-10T05:56:01.138Z,0
2023-03-10T05:57:01.165Z,0.11944444444444444
2023-03-10T05:58:01.163Z,0.08055555555555555
2023-03-10T05:59:00.858Z,0.1611111111111111
2023-03-10T06:00:01.455Z,0
2023-03-10T06:01:01.271Z,0
2023-03-10T06:02:01.057Z,0.03888888888888889
2023-03-10T06:03:01.148Z,0
2023-03-10T06:04:03.184Z,0
2023-03-10T06:05:01.843Z,0
2023-03-10T06:06:01.126Z,0
2023-03-10T06:07:01.089Z,0
2023-03-10T06:08:01.111Z,0
2023-03-10T06:09:06.426Z,0
2023-03-10T06:10:02.221Z,0.07777777777777778
2023-03-10T06:11:02.346Z,0.2777777777777778
2023-03-10T06:12:02.040Z,0
2023-03-10T06:13:02.042Z,0
2023-03-10T06:14:08.937Z,0.011111111111111112
2023-03-10T06:15:01.182Z,0
2023-03-10T06:16:01.249Z,0
2023-03-10T06:17:01.347Z,0
2023-03-10T06:18:01.707Z,0.11944444444444444
2023-03-10T06:19:10.897Z,0.08611111111111111
2023-03-10T06:20:01.470Z,0.036111111111111115
2023-03-10T06:21:01.570Z,0
2023-03-10T06:22:01.139Z,0.11944444444444444
2023-03-10T06:23:01.092Z,0
2023-03-10T06:24:13.780Z,0
2023-03-10T06:25:01.055Z,0
2023-03-10T06:26:01.100Z,0
2023-03-10T06:27:01.157Z,0
2023-03-10T06:28:01.138Z,0
2023-03-10T06:29:16.173Z,0.22222222222222224
2023-03-10T06:30:01.959Z,0.075
2023-03-10T06:31:02.095Z,0
2023-03-10T06:32:01.707Z,0.08055555555555555
2023-03-10T06:33:01.265Z,0
2023-03-10T06:34:04.233Z,0
2023-03-10T06:35:03.108Z,0.019444444444444445
2023-03-10T06:36:02.686Z,0
2023-03-10T06:37:01.203Z,0
2023-03-10T06:38:01.216Z,0.03888888888888889
2023-03-10T06:39:01.277Z,0
2023-03-10T06:40:03.985Z,0.11666666666666665
2023-03-10T06:41:02.015Z,0
2023-03-10T06:42:01.420Z,0.15833333333333333
2023-03-10T06:43:02.432Z,0.3972222222222222
2023-03-10T06:44:01.817Z,0
2023-03-10T06:45:01.299Z,0.03888888888888889
2023-03-10T06:46:01.570Z,0
2023-03-10T06:47:01.293Z,0
2023-03-10T06:48:02.225Z,0
2023-03-10T06:49:02.239Z,0
2023-03-10T06:50:01.367Z,0.35833333333333334
2023-03-10T06:51:02.435Z,0
2023-03-10T06:52:01.172Z,0
2023-03-10T06:53:01.066Z,0.03888888888888889
2023-03-10T06:54:01.087Z,0
2023-03-10T06:55:01.505Z,0.019444444444444445
2023-03-10T06:56:01.108Z,0.03888888888888889
2023-03-10T06:57:01.123Z,0.08055555555555555
2023-03-10T06:58:01.121Z,0.11944444444444444
2023-03-10T06:59:01.143Z,0
2023-03-10T07:00:01.129Z,0
2023-03-10T07:01:01.219Z,0
2023-03-10T07:02:01.139Z,0
2023-03-10T07:03:01.411Z,0.08055555555555555
2023-03-10T07:04:01.463Z,0
2023-03-10T07:05:03.010Z,0.03888888888888889
2023-03-10T07:06:01.238Z,0
2023-03-10T07:07:01.169Z,0
2023-03-10T07:08:01.070Z,0
2023-03-10T07:09:01.108Z,0.19999999999999998
2023-03-10T07:10:01.775Z,0
2023-03-10T07:11:01.086Z,0
2023-03-10T07:12:01.506Z,0.036111111111111115
2023-03-10T07:13:01.210Z,0
2023-03-10T07:14:01.106Z,0
2023-03-10T07:15:01.857Z,0.26666666666666666
2023-03-10T07:16:02.033Z,0
2023-03-10T07:17:01.203Z,0.08055555555555555
2023-03-10T07:18:01.132Z,0
2023-03-10T07:19:01.138Z,0.08055555555555555
2023-03-10T07:20:01.140Z,0.08055555555555555
2023-03-10T07:21:01.485Z,0
2023-03-10T07:22:01.511Z,0.19999999999999998
2023-03-10T07:23:01.256Z,0
2023-03-10T07:24:01.984Z,0.036111111111111115
2023-03-10T07:25:02.898Z,0.11388888888888887
2023-03-10T07:26:01.068Z,0.15833333333333333
2023-03-10T07:27:01.081Z,0.08055555555555555
2023-03-10T07:28:01.544Z,0
2023-03-10T07:29:01.115Z,0
2023-03-10T07:30:01.129Z,0.3194444444444444
2023-03-10T07:31:01.148Z,0
2023-03-10T07:32:01.110Z,0
2023-03-10T07:33:01.266Z,0.11944444444444444
2023-03-10T07:34:01.271Z,0.03888888888888889
2023-03-10T07:35:01.179Z,0.011111111111111112
2023-03-10T07:36:01.221Z,0.03888888888888889
2023-03-10T07:37:01.142Z,0
2023-03-10T07:38:01.143Z,0.19999999999999998
2023-03-10T07:39:01.047Z,0.11944444444444444
2023-03-10T07:40:00.759Z,0.17222222222222222
2023-03-10T07:41:02.030Z,0
2023-03-10T07:42:01.451Z,0.036111111111111115
2023-03-10T07:43:00.899Z,0
2023-03-10T07:44:00.584Z,0.11944444444444444
2023-03-10T07:45:00.787Z,0
2023-03-10T07:46:00.583Z,0.11944444444444444
2023-03-10T07:47:00.283Z,0.11944444444444444
2023-03-10T07:47:59.950Z,0.08055555555555555
2023-03-10T07:48:59.567Z,0
2023-03-10T07:50:01.387Z,0
2023-03-10T07:51:04.582Z,0
2023-03-10T07:52:01.134Z,0.08055555555555555
2023-03-10T07:53:02.029Z,0.03888888888888889
2023-03-10T07:54:00.833Z,0.08055555555555555
2023-03-10T07:55:04.531Z,0.011111111111111112
2023-03-10T07:56:01.501Z,0.15833333333333333
2023-03-10T07:57:01.168Z,0
2023-03-10T07:58:01.069Z,0.3972222222222222
2023-03-10T07:59:01.487Z,0.21666666666666667
2023-03-10T08:00:07.609Z,0.1611111111111111
2023-03-10T08:01:01.864Z,0.23888888888888887
2023-03-10T08:02:02.022Z,0
2023-03-10T08:03:01.295Z,0.11944444444444444
2023-03-10T08:04:01.273Z,0.15833333333333333
2023-03-10T08:05:10.489Z,0.024999999999999998
2023-03-10T08:06:04.684Z,0
2023-03-10T08:07:01.445Z,0.11944444444444444
2023-03-10T08:08:01.604Z,0.11944444444444444
2023-03-10T08:09:01.262Z,0.03888888888888889
2023-03-10T08:10:12.844Z,0
2023-03-10T08:11:02.871Z,0.03888888888888889
2023-03-10T08:12:01.180Z,0.03888888888888889
2023-03-10T08:13:01.063Z,0.15833333333333333
2023-03-10T08:14:01.243Z,0
2023-03-10T08:15:16.211Z,0.049999999999999996
2023-03-10T08:16:02.162Z,0.03888888888888889
2023-03-10T08:17:01.208Z,0
2023-03-10T08:18:01.095Z,0
2023-03-10T08:19:01.115Z,0.23888888888888887
2023-03-10T08:20:01.114Z,0
2023-03-10T08:21:01.116Z,0
2023-03-10T08:22:01.126Z,0
2023-03-10T08:23:01.541Z,0.03888888888888889
2023-03-10T08:24:01.129Z,0.03888888888888889
2023-03-10T08:25:01.146Z,0.03888888888888889
2023-03-10T08:26:01.433Z,0
2023-03-10T08:27:01.149Z,0
2023-03-10T08:28:01.157Z,0.08055555555555555
2023-03-10T08:29:01.164Z,0.03888888888888889
2023-03-10T08:30:01.072Z,0.19999999999999998
2023-03-10T08:31:05.321Z,0.03888888888888889
2023-03-10T08:32:01.243Z,0.15833333333333333
2023-03-10T08:33:01.232Z,0.2777777777777778
2023-03-10T08:34:01.090Z,0
2023-03-10T08:35:01.113Z,0.03888888888888889
2023-03-10T08:36:01.262Z,0.31666666666666665
2023-03-10T08:37:01.118Z,0.19999999999999998
2023-03-10T08:38:01.110Z,0
2023-03-10T08:39:01.146Z,0
2023-03-10T08:40:01.859Z,0.11944444444444444
2023-03-10T08:41:01.444Z,0
2023-03-10T08:42:01.293Z,0.7944444444444444
2023-03-10T08:43:01.523Z,0
2023-03-10T08:44:01.145Z,0.23888888888888887
2023-03-10T08:45:02.008Z,0.036111111111111115
2023-03-10T08:46:01.163Z,0
2023-03-10T08:47:01.249Z,0.11944444444444444
2023-03-10T08:48:01.783Z,0
2023-03-10T08:49:02.621Z,0
2023-03-10T08:50:01.526Z,0.03888888888888889
2023-03-10T08:51:01.498Z,0.14166666666666666
2023-03-10T08:52:01.215Z,0.5555555555555556
2023-03-10T08:53:01.235Z,0.15833333333333333
2023-03-10T08:54:01.129Z,0.23888888888888887
2023-03-10T08:55:01.144Z,0
2023-03-10T08:56:01.132Z,0.11944444444444444
2023-03-10T08:57:01.137Z,0.11944444444444444
2023-03-10T08:58:01.148Z,0.03888888888888889
2023-03-10T08:59:01.184Z,0.08055555555555555
2023-03-10T09:00:01.207Z,0.08055555555555555
2023-03-10T09:01:01.285Z,0.11944444444444444
2023-03-10T09:02:02.250Z,0.47777777777777775
2023-03-10T09:03:01.117Z,0.03888888888888889
2023-03-10T09:04:00.874Z,0.15833333333333333
2023-03-10T09:05:01.091Z,0.15833333333333333
2023-03-10T09:06:01.060Z,0.23888888888888887
2023-03-10T09:07:01.102Z,0.08055555555555555
2023-03-10T09:08:01.082Z,0.35833333333333334
2023-03-10T09:09:01.139Z,0
2023-03-10T09:10:01.129Z,0.03888888888888889
2023-03-10T09:11:01.057Z,0.11944444444444444
2023-03-10T09:12:01.514Z,0
2023-03-10T09:13:13.363Z,0.03888888888888889
2023-03-10T09:14:01.571Z,0
2023-03-10T09:15:01.152Z,0.23888888888888887
2023-03-10T09:16:01.203Z,0
2023-03-10T09:17:01.432Z,0
2023-03-10T09:18:01.995Z,0.03888888888888889
2023-03-10T09:19:01.095Z,0.4361111111111111
2023-03-10T09:20:01.113Z,0.23888888888888887
2023-03-10T09:21:01.466Z,0
2023-03-10T09:22:04.216Z,0.11944444444444444
2023-03-10T09:23:01.090Z,0.23888888888888887
2023-03-10T09:24:00.768Z,0.08055555555555555
2023-03-10T09:25:01.450Z,0
2023-03-10T09:26:02.120Z,0.2833333333333333
2023-03-10T09:27:01.116Z,0.08055555555555555
2023-03-10T09:28:01.125Z,0
2023-03-10T09:29:01.124Z,0.23888888888888887
2023-03-10T09:30:01.639Z,0.08055555555555555
2023-03-10T09:31:02.205Z,0.25555555555555554
2023-03-10T09:32:01.172Z,0.31666666666666665
2023-03-10T09:33:02.757Z,0.08055555555555555
2023-03-10T09:34:01.457Z,0.11944444444444444
2023-03-10T09:35:01.827Z,0.35833333333333334
2023-03-10T09:36:08.431Z,0.5027777777777778
2023-03-10T09:37:01.053Z,0.11944444444444444
2023-03-10T09:38:01.085Z,0.08055555555555555
2023-03-10T09:39:01.239Z,0.47777777777777775
2023-03-10T09:40:01.271Z,0.9527777777777778
2023-03-10T09:41:01.805Z,0.11111111111111112
2023-03-10T09:42:01.131Z,0.11944444444444444
2023-03-10T09:43:01.180Z,0.31666666666666665
2023-03-10T09:44:00.907Z,1.788888888888889
2023-03-10T09:45:01.139Z,0.35833333333333334
2023-03-10T09:46:05.041Z,0.7027777777777777
2023-03-10T09:47:01.338Z,0.6361111111111111
2023-03-10T09:48:03.197Z,0.8194444444444444
2023-03-10T09:49:02.188Z,0.8333333333333333
2023-03-10T09:50:01.281Z,0.9944444444444445
2023-03-10T09:51:08.453Z,0.836111111111111
2023-03-10T09:52:01.066Z,1.3916666666666666
2023-03-10T09:53:01.109Z,1.9861111111111112
2023-03-10T09:54:01.289Z,0.8333333333333333
2023-03-10T09:55:01.454Z,1.3916666666666666
2023-03-10T09:56:13.091Z,1.4027777777777777
2023-03-10T09:57:02.030Z,0.2777777777777778
2023-03-10T09:58:03.878Z,0.5166666666666667
2023-03-10T09:59:01.143Z,1.2722222222222221
2023-03-10T10:00:01.123Z,0.7555555555555555
2023-03-10T10:01:16.671Z,0.7888888888888889
2023-03-10T10:02:02.589Z,0.5972222222222222
2023-03-10T10:03:01.525Z,0.15833333333333333
2023-03-10T10:04:02.525Z,0.5972222222222222
2023-03-10T10:05:03.774Z,0.47777777777777775
2023-03-10T10:06:01.565Z,0.7944444444444444
2023-03-10T10:07:01.079Z,0.875
2023-03-10T10:08:01.359Z,0.5555555555555556
2023-03-10T10:09:05.095Z,0.6111111111111112
2023-03-10T10:10:01.481Z,0.911111111111111
2023-03-10T10:11:01.817Z,0.7138888888888888
2023-03-10T10:12:01.782Z,1.0722222222222222
2023-03-10T10:13:02.443Z,0.47777777777777775
2023-03-10T10:14:01.779Z,0.9527777777777778
2023-03-10T10:15:01.181Z,0.5555555555555556
2023-03-10T10:16:21.258Z,1.1111111111111112
2023-03-10T10:17:02.121Z,0.4361111111111111
2023-03-10T10:18:12.083Z,0.38888888888888884
2023-03-10T10:19:01.976Z,0.3972222222222222
2023-03-10T10:20:01.240Z,1.7472222222222222
2023-03-10T10:21:01.150Z,0.31666666666666665
2023-03-10T10:22:01.166Z,0.5972222222222222
2023-03-10T10:23:01.408Z,1.0333333333333334
2023-03-10T10:24:00.868Z,1.4305555555555556
2023-03-10T10:25:01.192Z,0.9527777777777778
2023-03-10T10:26:02.674Z,0.6361111111111111
2023-03-10T10:27:01.098Z,0.3972222222222222
2023-03-10T10:28:01.446Z,2.1444444444444444
2023-03-10T10:29:01.109Z,0.9944444444444445
2023-03-10T10:30:01.146Z,0.9138888888888889
2023-03-10T10:31:02.116Z,1.152777777777778
2023-03-10T10:32:01.531Z,0.4527777777777777
2023-03-10T10:33:02.044Z,0.4361111111111111
2023-03-10T10:34:01.351Z,0.675
2023-03-10T10:35:01.078Z,0.6361111111111111
2023-03-10T10:36:01.135Z,0.9138888888888889
2023-03-10T10:37:02.200Z,1.8666666666666665
2023-03-10T10:38:01.168Z,0.5166666666666667
2023-03-10T10:39:03.964Z,1.0333333333333334
2023-03-10T10:40:01.455Z,1.4305555555555556
2023-03-10T10:41:01.489Z,1.0944444444444443
2023-03-10T10:42:02.265Z,1.1111111111111112
2023-03-10T10:43:02.316Z,1.4694444444444443
2023-03-10T10:44:02.006Z,1.152777777777778
2023-03-10T10:45:01.316Z,1.2305555555555554
2023-03-10T10:46:02.248Z,0.875